createdAt,value
2022-08-04T00:04:33.783Z,1.13
2022-08-04T00:09:45.829Z,1.58
2022-08-04T00:14:51.374Z,1.50
2022-08-04T00:19:57.749Z,1.50
2022-08-04T00:25:04.965Z,1.60
2022-08-04T00:30:09.556Z,1.52
2022-08-04T00:35:15.690Z,1.67
2022-08-04T00:40:33.944Z,1.42
2022-08-04T00:46:21.149Z,1.77
2022-08-04T00:51:34.387Z,1.80
2022-08-04T00:57:06.302Z,1.77
2022-08-04T01:02:20.797Z,1.73
2022-08-04T01:07:58.792Z,1.88
2022-08-04T01:13:27.501Z,1.90
2022-08-04T01:18:37.245Z,2.07
2022-08-04T01:24:12.455Z,2.08
2022-08-04T01:29:18.030Z,2.10
2022-08-04T01:34:23.137Z,2.30
2022-08-04T01:39:42.048Z,2.33
2022-08-04T01:44:50.113Z,1.98
2022-08-04T01:49:56.365Z,2.70
2022-08-04T01:55:00.966Z,2.40
2022-08-04T02:00:07.002Z,2.10
2022-08-04T02:05:12.110Z,2.00
2022-08-04T02:10:28.203Z,2.10
2022-08-04T02:15:43.890Z,2.15
2022-08-04T02:20:50.080Z,2.00
2022-08-04T02:25:58.942Z,2.20
2022-08-04T02:31:16.445Z,2.40
2022-08-04T02:36:24.930Z,2.10
2022-08-04T02:41:30.038Z,1.80
2022-08-04T02:46:36.714Z,2.00
2022-08-04T02:51:43.749Z,2.08
2022-08-04T02:56:48.076Z,3.30
2022-08-04T03:01:58.422Z,9.90
2022-08-04T03:07:42.779Z,5.68
2022-08-04T03:13:09.882Z,4.78
2022-08-04T03:18:54.477Z,4.00
2022-08-04T03:24:52.050Z,3.57
2022-08-04T03:30:06.229Z,2.10
2022-08-04T03:35:36.050Z,2.55
2022-08-04T03:41:16.095Z,2.33
2022-08-04T03:46:52.309Z,2.53
2022-08-04T03:52:25.369Z,2.70
2022-08-04T03:57:58.101Z,2.58
2022-08-04T04:03:32.515Z,2.30
2022-08-04T04:09:16.300Z,2.40
2022-08-04T04:14:56.621Z,2.50
2022-08-04T04:20:19.001Z,2.70
2022-08-04T04:25:37.159Z,2.75
2022-08-04T04:30:49.749Z,2.53
2022-08-04T04:36:04.424Z,3.10
2022-08-04T04:41:23.684Z,2.70
2022-08-04T04:46:36.156Z,2.70
2022-08-04T04:51:45.718Z,2.50
2022-08-04T04:56:57.848Z,3.90
2022-08-04T05:02:34.409Z,2.85
2022-08-04T05:08:42.948Z,2.70
2022-08-04T05:14:36.278Z,2.60
2022-08-04T05:19:18.574Z,2.92
2022-08-04T05:24:25.156Z,2.60
2022-08-04T05:29:41.100Z,2.50
2022-08-04T05:34:56.973Z,2.53
2022-08-04T05:40:05.089Z,2.40
2022-08-04T05:45:11.253Z,2.55
2022-08-04T05:50:15.494Z,2.40
2022-08-04T05:55:57.042Z,2.50
2022-08-04T06:00:52.136Z,2.40
2022-08-04T06:05:58.226Z,2.30
2022-08-04T06:11:06.272Z,2.15
2022-08-04T06:16:18.119Z,2.38
2022-08-04T06:21:36.192Z,2.30
2022-08-04T06:26:41.009Z,2.30
2022-08-04T06:32:27.745Z,2.50
2022-08-04T06:37:12.082Z,2.00
2022-08-04T06:42:28.271Z,2.00
2022-08-04T06:47:34.091Z,2.40
2022-08-04T06:52:38.240Z,2.00
2022-08-04T06:57:42.493Z,1.80
2022-08-04T07:02:50.481Z,1.80
2022-08-04T07:07:56.765Z,1.60
2022-08-04T07:13:03.685Z,1.80
2022-08-04T07:18:08.539Z,1.92
2022-08-04T07:23:13.863Z,1.90
2022-08-04T07:28:17.197Z,2.00
2022-08-04T07:33:22.536Z,1.73
2022-08-04T07:38:27.826Z,1.70
2022-08-04T07:43:32.743Z,1.63
2022-08-04T07:48:38.814Z,1.95
2022-08-04T07:53:54.544Z,1.65
2022-08-04T07:58:59.490Z,1.73
2022-08-04T08:04:06.914Z,1.88
2022-08-04T08:09:13.477Z,1.80
2022-08-04T08:14:18.606Z,1.60
2022-08-04T08:19:23.754Z,1.83
2022-08-04T08:24:27.862Z,1.60
2022-08-04T08:29:31.758Z,1.63
2022-08-04T08:34:36.877Z,1.50
2022-08-04T08:39:43.664Z,1.60
2022-08-04T08:45:17.892Z,1.50
2022-08-04T08:50:57.593Z,1.50
2022-08-04T08:56:14.436Z,1.42
2022-08-04T09:01:37.996Z,1.70
2022-08-04T09:07:06.181Z,1.60
2022-08-04T09:12:16.814Z,1.50
2022-08-04T09:17:30.313Z,1.40
2022-08-04T09:22:44.843Z,1.57
2022-08-04T09:27:53.181Z,1.70
2022-08-04T09:33:10.553Z,1.50
2022-08-04T09:38:20.758Z,1.58
2022-08-04T09:43:59.218Z,1.58
2022-08-04T09:49:06.671Z,1.40
2022-08-04T09:54:30.461Z,1.40
2022-08-04T09:59:42.497Z,1.40
2022-08-04T10:04:48.562Z,1.38
2022-08-04T10:10:02.984Z,1.30
2022-08-04T10:15:12.252Z,1.48
2022-08-04T10:20:34.015Z,1.10
2022-08-04T10:26:07.967Z,1.30
2022-08-04T10:31:20.389Z,1.33
2022-08-04T10:36:28.778Z,1.35
2022-08-04T10:41:40.611Z,1.40
2022-08-04T10:46:49.161Z,1.20
2022-08-04T10:51:57.311Z,1.30
2022-08-04T10:57:08.753Z,1.20
2022-08-04T11:02:27.482Z,1.30
2022-08-04T11:07:34.537Z,1.20
2022-08-04T11:12:41.643Z,1.20
2022-08-04T11:17:48.241Z,1.10
2022-08-04T11:22:59.598Z,1.20
2022-08-04T11:28:10.730Z,1.20
2022-08-04T11:33:24.825Z,1.60
2022-08-04T11:38:34.602Z,1.20
2022-08-04T11:43:56.646Z,1.13
2022-08-04T11:49:09.615Z,1.20
2022-08-04T11:54:14.218Z,1.10
2022-08-04T11:59:19.918Z,1.03
2022-08-04T12:04:36.740Z,1.08
2022-08-04T12:09:53.666Z,1.30
2022-08-04T12:15:06.441Z,1.02
2022-08-04T12:20:38.181Z,1.10
2022-08-04T12:25:45.619Z,1.30
2022-08-04T12:31:01.602Z,1.10
2022-08-04T12:36:21.415Z,1.10
2022-08-04T12:41:29.493Z,1.10
2022-08-04T12:46:34.832Z,1.03
2022-08-04T12:52:07.731Z,1.20
2022-08-04T12:57:08.144Z,1.30
2022-08-04T13:02:17.630Z,1.17
2022-08-04T13:07:22.943Z,1.30
2022-08-04T13:12:32.790Z,1.23
2022-08-04T13:17:49.197Z,1.30
2022-08-04T13:22:52.965Z,1.55
2022-08-04T13:27:57.741Z,1.37
2022-08-04T13:33:04.675Z,1.40
2022-08-04T13:38:12.050Z,1.30
2022-08-04T13:44:15.399Z,1.40
2022-08-04T13:49:15.956Z,1.30
2022-08-04T13:54:14.617Z,1.50
2022-08-04T13:59:19.690Z,1.27
2022-08-04T14:04:28.081Z,1.40
2022-08-04T14:09:35.341Z,1.48
2022-08-04T14:14:47.201Z,1.23
2022-08-04T14:19:55.035Z,1.33
2022-08-04T14:24:59.386Z,1.40
2022-08-04T14:30:03.236Z,3.38
2022-08-04T14:35:14.139Z,1.30
2022-08-04T14:40:30.506Z,1.30
2022-08-04T14:45:36.504Z,1.60
2022-08-04T14:50:43.782Z,1.30
2022-08-04T14:55:49.470Z,1.30
2022-08-04T15:00:57.368Z,1.40
2022-08-04T15:06:09.262Z,1.33
2022-08-04T15:11:23.439Z,1.40
2022-08-04T15:16:29.869Z,1.40
2022-08-04T15:21:36.056Z,1.30
2022-08-04T15:26:43.253Z,1.30
2022-08-04T15:32:05.964Z,1.20
2022-08-04T15:37:19.744Z,1.50
2022-08-04T15:42:32.091Z,1.23
2022-08-04T15:47:35.815Z,1.38
2022-08-04T15:53:10.710Z,1.42
2022-08-04T15:58:17.519Z,1.37
2022-08-04T16:04:00.469Z,1.33
2022-08-04T16:09:07.320Z,1.30
2022-08-04T16:14:11.871Z,1.60
2022-08-04T16:19:35.373Z,1.30
2022-08-04T16:24:42.127Z,1.20
2022-08-04T16:29:46.936Z,1.30
2022-08-04T16:34:56.466Z,1.30
2022-08-04T16:40:37.635Z,1.35
2022-08-04T16:45:50.526Z,1.20
2022-08-04T16:51:03.333Z,1.30
2022-08-04T16:56:11.461Z,1.70
2022-08-04T17:01:21.766Z,1.50
2022-08-04T17:06:38.409Z,1.50
2022-08-04T17:11:44.489Z,1.25
2022-08-04T17:16:48.519Z,1.90
2022-08-04T17:21:53.039Z,1.02
2022-08-04T17:27:00.592Z,1.40
2022-08-04T17:32:05.314Z,1.40
2022-08-04T17:37:37.775Z,1.40
2022-08-04T17:42:38.486Z,1.50
2022-08-04T17:47:51.514Z,1.40
2022-08-04T17:53:01.786Z,1.30
2022-08-04T17:58:21.533Z,1.33
2022-08-04T18:03:29.920Z,1.43
2022-08-04T18:08:39.904Z,1.35
2022-08-04T18:13:56.950Z,1.45
2022-08-04T18:19:10.542Z,1.60
2022-08-04T18:24:14.148Z,1.60
2022-08-04T18:29:31.535Z,1.50
2022-08-04T18:34:35.500Z,1.60
2022-08-04T18:40:25.229Z,1.53
2022-08-04T18:45:11.592Z,1.38
2022-08-04T18:55:56.632Z,1.80
2022-08-04T19:01:02.897Z,1.50
2022-08-04T19:06:16.950Z,4.00
2022-08-04T19:11:54.030Z,1.70
2022-08-04T19:16:54.298Z,1.42
2022-08-04T19:22:02.584Z,1.63
2022-08-04T19:27:10.615Z,1.50
2022-08-04T19:32:16.519Z,1.52
2022-08-04T19:38:00.860Z,1.60
2022-08-04T19:42:43.885Z,1.50
2022-08-04T19:48:12.298Z,1.70
2022-08-04T19:53:18.948Z,1.50
2022-08-04T19:58:26.231Z,1.70
2022-08-04T20:04:08.040Z,1.60
2022-08-04T20:08:54.626Z,1.60
2022-08-04T20:14:00.483Z,1.60
2022-08-04T20:19:10.611Z,1.77
2022-08-04T20:24:40.011Z,1.70
2022-08-04T20:29:43.287Z,1.80
2022-08-04T20:34:52.051Z,1.90
2022-08-04T20:39:56.413Z,1.80
2022-08-04T20:44:59.988Z,1.88
2022-08-04T20:50:09.485Z,2.00
2022-08-04T20:55:13.170Z,1.83
2022-08-04T21:00:17.688Z,1.87
2022-08-04T21:05:31.953Z,1.87
2022-08-04T21:10:36.431Z,1.90
2022-08-04T21:15:58.567Z,2.03
2022-08-04T21:21:04.119Z,1.70
2022-08-04T21:26:10.880Z,1.90
2022-08-04T21:31:22.095Z,2.00
2022-08-04T21:36:27.265Z,1.80
2022-08-04T21:41:32.076Z,1.80
2022-08-04T21:46:42.492Z,2.10
2022-08-04T21:51:58.025Z,2.00
2022-08-04T21:57:04.176Z,2.20
2022-08-04T22:02:09.697Z,2.20
2022-08-04T22:07:16.557Z,2.03
2022-08-04T22:12:21.100Z,2.20
2022-08-04T22:17:25.501Z,2.00
2022-08-04T22:22:34.886Z,2.10
2022-08-04T22:27:56.078Z,2.20
2022-08-04T22:33:07.376Z,2.17
2022-08-04T22:38:25.602Z,2.00
2022-08-04T22:43:37.525Z,2.40
2022-08-04T22:48:43.589Z,2.42
2022-08-04T22:53:49.496Z,2.97
2022-08-04T22:58:52.799Z,3.17
2022-08-04T23:03:57.862Z,2.30
2022-08-04T23:09:03.986Z,2.50
2022-08-04T23:14:08.297Z,2.35
2022-08-04T23:19:15.346Z,2.20
2022-08-04T23:24:20.399Z,2.40
2022-08-04T23:29:23.819Z,2.40
2022-08-04T23:34:27.254Z,2.30
2022-08-04T23:40:03.788Z,2.30
2022-08-04T23:44:57.289Z,2.50
2022-08-04T23:55:07.395Z,2.40
